Time;durP1;ratioP1;P1;durP2;ratioP2;P2;SDS_P1;SDS_P2;PMS_P1;PMS_P2;Temp;Humidity;BMP_temperature;BMP_pressure;BME280_temperature;BME280_humidity;BME280_pressure;Samples;Min_cycle;Max_cycle;Signal;HPM_P1;HPM_P2
2022/01/09 00:02:07;;;;;;;9.95;6.35;;;;;;;7.62;62.26;94305.59;5026645;28;20351;-63
2022/01/09 00:04:34;;;;;;;10.18;5.72;;;;;;;7.62;62.82;94295.16;5029220;28;20212;-62
2022/01/09 00:07:01;;;;;;;10.10;6.13;;;;;;;7.25;62.51;94313.38;5026969;28;20194;-62
2022/01/09 00:09:28;;;;;;;9.57;5.95;;;;;;;7.41;62.73;94309.09;5028446;28;20233;-61
2022/01/09 00:11:55;;;;;;;11.70;6.25;;;;;;;7.04;64.31;94320.25;5023734;28;20645;-61
2022/01/09 00:14:22;;;;;;;8.95;6.85;;;;;;;6.55;66.03;94325.75;5025717;28;20303;-62
2022/01/09 00:16:49;;;;;;;9.02;5.90;;;;;;;6.41;66.00;94317.53;5022834;28;20193;-62
2022/01/09 00:19:15;;;;;;;9.05;5.80;;;;;;;6.41;66.63;94320.13;5026497;28;20711;-61
2022/01/09 00:21:42;;;;;;;8.82;6.18;;;;;;;6.38;67.06;94319.81;5026052;28;20198;-62
2022/01/09 00:24:09;;;;;;;9.65;5.72;;;;;;;6.78;66.32;94315.84;5025241;28;20208;-62
2022/01/09 00:26:36;;;;;;;9.60;6.38;;;;;;;6.98;65.27;94305.63;5024090;28;20622;-62
2022/01/09 00:29:06;;;;;;;11.50;6.28;;;;;;;7.35;63.63;94304.88;5026244;28;20304;-62
2022/01/09 00:31:34;;;;;;;9.35;5.90;;;;;;;7.48;63.26;94300.00;5025966;28;20745;-62
2022/01/09 00:34:00;;;;;;;9.27;6.15;;;;;;;7.29;63.75;94303.25;5023401;28;20205;-61
2022/01/09 00:36:29;;;;;;;9.57;6.25;;;;;;;7.23;64.19;94307.63;5028645;28;20224;-62
2022/01/09 00:38:56;;;;;;;10.85;6.63;;;;;;;7.27;64.22;94302.72;5025617;28;20193;-61
2022/01/09 00:41:23;;;;;;;11.05;6.20;;;;;;;7.24;63.99;94287.59;5025749;28;20193;-62
2022/01/09 00:43:50;;;;;;;8.63;6.28;;;;;;;7.11;63.06;94294.00;5023255;28;20189;-62
2022/01/09 00:46:17;;;;;;;9.20;6.05;;;;;;;7.22;62.75;94283.41;5025843;28;20198;-63
2022/01/09 00:48:44;;;;;;;9.15;6.18;;;;;;;7.12;63.04;94285.94;5020123;28;20245;-61
2022/01/09 00:51:11;;;;;;;10.73;6.22;;;;;;;7.72;61.76;94282.19;5009658;28;20300;-62
2022/01/09 00:53:38;;;;;;;8.73;5.88;;;;;;;7.29;62.08;94269.38;5009621;28;20220;-61
2022/01/09 00:56:05;;;;;;;8.85;5.75;;;;;;;6.70;64.39;94282.44;5010576;28;20197;-62
2022/01/09 00:58:32;;;;;;;9.07;6.20;;;;;;;6.77;64.51;94284.84;5009841;28;20593;-62
2022/01/09 01:01:00;;;;;;;9.38;6.18;;;;;;;6.68;64.49;94289.69;5008939;28;21028;-61
2022/01/09 01:03:27;;;;;;;8.70;6.18;;;;;;;6.94;65.00;94291.50;5009448;28;20267;-61
2022/01/09 01:05:54;;;;;;;10.45;6.63;;;;;;;6.86;64.85;94302.38;5009391;28;20293;-62
2022/01/09 01:08:21;;;;;;;9.95;6.90;;;;;;;6.58;65.64;94310.44;5008856;28;20557;-62
2022/01/09 01:10:47;;;;;;;13.55;7.68;;;;;;;6.15;66.53;94306.03;5009403;28;20309;-61
2022/01/09 01:13:15;;;;;;;14.05;9.07;;;;;;;6.21;65.90;94288.66;5009099;28;20183;-61
2022/01/09 01:15:42;;;;;;;14.15;9.07;;;;;;;6.51;65.32;94278.59;5009293;28;20229;-63
2022/01/09 01:18:09;;;;;;;15.02;8.77;;;;;;;6.64;64.88;94273.00;5009060;28;20194;-61
2022/01/09 01:20:37;;;;;;;14.25;9.50;;;;;;;6.67;64.79;94267.31;5009094;28;20209;-62
2022/01/09 01:23:03;;;;;;;15.05;8.90;;;;;;;6.65;63.98;94258.97;5008774;28;21043;-62
2022/01/09 01:25:30;;;;;;;15.88;9.35;;;;;;;6.52;64.02;94274.97;5009475;28;20206;-62
2022/01/09 01:27:57;;;;;;;15.65;10.45;;;;;;;6.25;64.80;94268.16;5009003;28;20259;-62
2022/01/09 01:30:24;;;;;;;17.67;10.88;;;;;;;6.48;64.48;94275.72;5009019;28;20264;-62
2022/01/09 01:32:51;;;;;;;16.95;10.38;;;;;;;6.59;63.54;94253.94;5008638;28;21066;-62
2022/01/09 01:35:18;;;;;;;17.08;10.55;;;;;;;6.66;63.56;94263.13;5009403;28;20287;-63
2022/01/09 01:37:45;;;;;;;24.52;15.20;;;;;;;6.54;63.24;94267.69;5008947;28;20622;-61
2022/01/09 01:40:15;;;;;;;25.48;14.68;;;;;;;6.35;64.03;94271.66;5009155;28;20190;-61
2022/01/09 01:42:43;;;;;;;24.00;14.35;;;;;;;6.03;64.47;94266.38;5008627;28;20222;-61
2022/01/09 01:45:11;;;;;;;21.90;14.32;;;;;;;6.11;65.14;94267.75;5009110;28;20193;-62
2022/01/09 01:47:38;;;;;;;29.55;15.73;;;;;;;5.97;64.94;94261.34;5008569;28;20260;-62
2022/01/09 01:50:08;;;;;;;28.88;16.50;;;;;;;6.19;64.38;94249.09;5009070;28;20305;-61
2022/01/09 01:52:42;;;;;;;22.13;14.77;;;;;;;6.52;63.50;94251.53;5011265;28;20350;-61
2022/01/09 01:55:11;;;;;;;25.48;15.05;;;;;;;6.34;63.57;94246.69;5013087;28;20284;-61
2022/01/09 01:57:40;;;;;;;26.77;15.95;;;;;;;6.19;63.98;94230.91;5012394;28;20271;-62
2022/01/09 02:00:10;;;;;;;23.92;14.68;;;;;;;6.34;64.17;94225.88;5012576;28;20769;-61
2022/01/09 02:02:37;;;;;;;22.15;14.95;;;;;;;6.51;64.05;94212.75;5012383;28;20186;-61
2022/01/09 02:05:06;;;;;;;24.90;15.05;;;;;;;6.61;64.20;94226.66;5013731;28;20291;-61
2022/01/09 02:07:33;;;;;;;24.02;15.38;;;;;;;6.52;64.37;94228.13;5012492;28;20205;-62
2022/01/09 02:10:00;;;;;;;25.80;16.15;;;;;;;5.95;65.26;94229.59;5012549;28;20226;-61
2022/01/09 02:12:28;;;;;;;26.98;15.75;;;;;;;5.84;66.01;94220.09;5012718;28;20300;-62
2022/01/09 02:14:55;;;;;;;28.15;16.33;;;;;;;5.86;65.27;94212.84;5011916;28;20341;-61
2022/01/09 02:17:22;;;;;;;27.65;16.02;;;;;;;6.10;64.10;94214.16;5012461;28;20281;-61
2022/01/09 02:19:56;;;;;;;28.10;17.00;;;;;;;6.35;63.66;94198.81;5012096;28;20198;-61
2022/01/09 02:22:26;;;;;;;27.42;16.38;;;;;;;6.33;63.14;94193.09;5012302;28;20706;-61
2022/01/09 02:24:53;;;;;;;26.38;15.82;;;;;;;6.38;63.37;94200.94;5011948;28;20201;-62
2022/01/09 02:27:20;;;;;;;26.30;16.48;;;;;;;6.58;62.91;94195.91;5012657;28;20206;-62
2022/01/09 02:29:47;;;;;;;26.15;15.65;;;;;;;6.06;64.56;94198.25;5012055;28;20233;-61
2022/01/09 02:32:18;;;;;;;29.45;16.05;;;;;;;5.81;64.73;94189.38;5012184;28;20305;-62
2022/01/09 02:34:47;;;;;;;27.90;16.40;;;;;;;6.04;64.24;94189.13;5011984;28;20336;-62
2022/01/09 02:37:14;;;;;;;27.70;17.25;;;;;;;6.07;63.65;94163.44;5012156;28;20194;-61
2022/01/09 02:39:41;;;;;;;27.75;16.17;;;;;;;6.42;63.32;94186.41;5011613;28;20201;-61
2022/01/09 02:42:23;;;;;;;26.33;16.17;;;;;;;6.20;63.14;94183.06;5012119;28;20201;-62
2022/01/09 02:44:51;;;;;;;26.83;15.25;;;;;;;6.33;63.32;94176.69;5012167;28;20213;-62
2022/01/09 02:47:19;;;;;;;27.15;15.63;;;;;;;6.38;63.28;94169.72;5011652;28;20182;-62
2022/01/09 02:49:50;;;;;;;26.80;16.30;;;;;;;6.54;62.40;94162.81;5026386;28;20677;-61
2022/01/09 02:52:35;;;;;;;26.45;15.15;;;;;;;6.61;62.22;94158.16;5011869;28;20229;-61
2022/01/09 02:57:32;;;;;;;23.55;14.68;;;;;;;6.52;62.75;94160.44;5011564;28;20597;-61
2022/01/09 02:59:59;;;;;;;19.73;13.10;;;;;;;6.74;62.32;94163.75;5011477;28;20202;-61
2022/01/09 03:02:27;;;;;;;21.05;13.38;;;;;;;6.90;62.19;94156.84;5011776;28;20216;-62
2022/01/09 03:04:54;;;;;;;21.83;13.07;;;;;;;6.77;62.74;94152.06;5011112;28;20728;-62
2022/01/09 03:07:21;;;;;;;27.48;14.50;;;;;;;6.70;62.38;94152.28;5011931;28;20205;-62
2022/01/09 03:09:47;;;;;;;26.30;14.55;;;;;;;6.50;62.83;94156.53;5011221;28;20197;-62
2022/01/09 03:12:15;;;;;;;22.45;13.88;;;;;;;6.36;63.54;94145.75;5011126;28;20229;-60
2022/01/09 03:14:43;;;;;;;23.48;14.88;;;;;;;6.48;62.17;94143.75;5011266;28;20704;-61
2022/01/09 03:17:10;;;;;;;22.15;13.95;;;;;;;6.62;62.10;94150.13;5011213;28;20643;-62
2022/01/09 03:19:38;;;;;;;26.63;15.05;;;;;;;6.64;61.94;94142.84;5011088;28;20194;-62
2022/01/09 03:22:04;;;;;;;26.60;15.13;;;;;;;6.07;63.55;94147.03;5011124;28;20198;-62
2022/01/09 03:24:31;;;;;;;23.00;14.43;;;;;;;6.54;62.04;94141.97;5009611;28;20642;-62
2022/01/09 03:26:58;;;;;;;25.45;14.27;;;;;;;6.56;61.84;94140.72;5011768;28;20247;-61
2022/01/09 03:29:25;;;;;;;23.38;14.63;;;;;;;6.33;62.51;94143.66;5010550;28;20698;-62
2022/01/09 03:31:52;;;;;;;24.27;15.05;;;;;;;6.38;61.72;94135.88;5010922;28;20218;-62
2022/01/09 03:34:19;;;;;;;24.45;14.15;;;;;;;6.30;62.28;94136.31;5010540;28;20186;-62
2022/01/09 03:36:46;;;;;;;24.65;15.10;;;;;;;6.40;62.71;94135.63;5010909;28;20398;-62
2022/01/09 03:39:13;;;;;;;24.45;13.70;;;;;;;6.49;62.39;94134.94;5010417;28;20228;-61
2022/01/09 03:41:39;;;;;;;24.25;14.13;;;;;;;6.35;62.48;94133.75;5010831;28;20197;-62
2022/01/09 03:44:06;;;;;;;22.42;14.07;;;;;;;6.37;62.26;94139.50;5010878;28;20252;-63
2022/01/09 03:46:33;;;;;;;24.77;14.98;;;;;;;5.73;64.27;94146.38;5010841;28;20191;-62
2022/01/09 03:49:00;;;;;;;23.45;16.08;;;;;;;6.10;63.40;94136.94;5010633;28;20193;-62
2022/01/09 03:51:32;;;;;;;24.25;15.57;;;;;;;6.17;63.11;94126.31;5011360;28;20247;-62
2022/01/09 03:53:59;;;;;;;23.67;15.15;;;;;;;6.35;62.63;94123.34;5010651;28;20252;-61
2022/01/09 03:56:26;;;;;;;24.05;14.73;;;;;;;6.40;62.56;94125.22;5010279;28;20201;-61
2022/01/09 03:58:53;;;;;;;22.48;14.30;;;;;;;6.22;63.19;94118.59;5016975;28;20190;-62
2022/01/09 04:01:20;;;;;;;23.08;14.60;;;;;;;6.09;63.31;94118.97;5010712;28;20193;-61
2022/01/09 04:03:47;;;;;;;21.40;13.77;;;;;;;6.11;64.00;94120.28;5009945;28;20178;-62
2022/01/09 04:06:14;;;;;;;25.48;14.68;;;;;;;6.00;64.63;94123.81;5010687;28;20193;-62
2022/01/09 04:08:41;;;;;;;20.98;13.18;;;;;;;6.29;63.90;94128.78;5010099;28;20209;-62
2022/01/09 04:11:09;;;;;;;22.83;13.82;;;;;;;6.34;63.17;94121.78;5010663;28;20224;-62
2022/01/09 04:13:37;;;;;;;21.50;13.05;;;;;;;6.74;62.40;94126.53;5009603;28;20222;-62
2022/01/09 04:16:04;;;;;;;22.25;13.45;;;;;;;6.55;62.85;94123.50;5010002;28;20190;-62
2022/01/09 04:18:31;;;;;;;21.38;13.50;;;;;;;6.28;64.09;94125.38;5009970;28;20547;-61
2022/01/09 04:20:59;;;;;;;22.50;14.45;;;;;;;5.85;64.25;94102.09;5010087;28;20198;-62
2022/01/09 04:23:26;;;;;;;22.13;13.43;;;;;;;6.14;65.01;94127.63;5009958;28;20198;-62
2022/01/09 04:25:53;;;;;;;21.33;13.20;;;;;;;6.30;64.67;94120.72;5010192;28;20681;-62
2022/01/09 04:28:19;;;;;;;23.08;14.23;;;;;;;6.20;64.04;94120.63;5009773;28;20190;-61
2022/01/09 04:30:46;;;;;;;24.67;14.50;;;;;;;5.32;67.29;94123.56;5010065;28;20237;-62
2022/01/09 04:33:14;;;;;;;22.15;14.10;;;;;;;5.56;67.04;94118.91;5007939;28;20233;-62
2022/01/09 04:35:43;;;;;;;21.27;14.60;;;;;;;5.38;67.75;94117.41;5010392;28;20308;-62
2022/01/09 04:38:10;;;;;;;27.27;15.77;;;;;;;5.92;66.86;94110.47;5009336;28;20707;-61
2022/01/09 04:40:37;;;;;;;20.92;13.50;;;;;;;5.97;66.32;94110.53;5009400;28;20650;-64
2022/01/09 04:43:22;;;;;;;22.52;14.18;;;;;;;5.82;66.95;94118.94;5009553;28;20182;-61
2022/01/09 04:45:50;;;;;;;22.80;14.57;;;;;;;6.34;65.19;94100.19;5024846;28;20197;-61
2022/01/09 04:48:16;;;;;;;23.23;14.02;;;;;;;6.67;63.92;94099.91;5009241;28;20217;-62
2022/01/09 04:50:45;;;;;;;21.77;14.65;;;;;;;6.67;63.84;94111.13;5009214;28;20205;-61
2022/01/09 04:53:12;;;;;;;21.75;14.13;;;;;;;6.58;64.19;94115.22;5009384;28;20225;-62
2022/01/09 04:55:42;;;;;;;22.95;14.18;;;;;;;6.24;64.77;94116.50;5009749;28;20198;-65
2022/01/09 04:58:09;;;;;;;25.33;14.85;;;;;;;6.43;64.87;94115.09;5009370;28;20205;-64
2022/01/09 05:00:39;;;;;;;28.08;17.65;;;;;;;6.50;64.90;94114.88;5009608;28;20178;-62
2022/01/09 05:03:09;;;;;;;23.40;16.48;;;;;;;6.94;63.83;94111.81;5009279;28;20232;-62
2022/01/09 05:05:38;;;;;;;22.75;15.02;;;;;;;6.85;63.19;94113.31;5009668;28;20263;-62
2022/01/09 05:08:05;;;;;;;24.25;15.25;;;;;;;7.03;63.11;94107.72;5009335;28;20213;-62
2022/01/09 05:10:32;;;;;;;23.70;14.45;;;;;;;6.93;62.94;94110.25;5008110;28;20205;-62
2022/01/09 05:12:59;;;;;;;21.30;13.95;;;;;;;6.82;63.12;94116.44;5009092;28;20356;-62
2022/01/09 05:15:25;;;;;;;23.02;14.00;;;;;;;7.02;63.33;94119.19;5009542;28;20233;-62
2022/01/09 05:17:57;;;;;;;22.10;13.98;;;;;;;6.73;62.99;94104.91;5009000;28;20206;-61
2022/01/09 05:20:25;;;;;;;23.05;14.27;;;;;;;6.86;63.29;94114.88;5009604;28;20220;-61
2022/01/09 05:22:52;;;;;;;20.00;13.40;;;;;;;7.01;62.66;94107.16;5008714;28;20682;-63
2022/01/09 05:25:19;;;;;;;23.67;15.23;;;;;;;7.02;62.62;94098.34;5009379;28;20194;-62
2022/01/09 05:27:47;;;;;;;22.17;15.15;;;;;;;7.09;62.13;94104.09;5008426;28;20186;-62
2022/01/09 05:30:14;;;;;;;22.75;14.18;;;;;;;7.35;62.25;94112.03;5009062;28;20218;-61
2022/01/09 05:32:41;;;;;;;21.02;14.52;;;;;;;7.28;61.86;94099.22;5008440;28;20221;-62
2022/01/09 05:35:13;;;;;;;20.90;15.32;;;;;;;6.79;62.23;94092.69;5009176;28;20237;-62
2022/01/09 05:37:40;;;;;;;25.38;17.00;;;;;;;7.25;61.99;94091.13;5008819;28;20201;-63
2022/01/09 05:40:07;;;;;;;33.40;21.75;;;;;;;6.86;62.36;94094.06;5008805;28;20202;-62
2022/01/09 05:42:34;;;;;;;38.30;24.83;;;;;;;7.05;62.37;94097.81;5008495;28;20197;-62
2022/01/09 05:45:03;;;;;;;46.15;28.85;;;;;;;6.45;63.68;94096.63;5009028;28;20194;-62
2022/01/09 05:47:29;;;;;;;43.20;28.02;;;;;;;6.27;64.74;94097.81;5009191;28;20280;-61
2022/01/09 05:49:56;;;;;;;44.35;28.10;;;;;;;6.70;63.78;94096.81;5008419;28;20193;-62
2022/01/09 05:52:23;;;;;;;41.00;27.58;;;;;;;6.72;62.68;94103.34;5008754;28;20275;-62
2022/01/09 05:54:50;;;;;;;40.75;27.55;;;;;;;6.68;63.31;94097.06;5008696;28;20603;-62
2022/01/09 05:57:17;;;;;;;46.53;29.35;;;;;;;6.70;63.46;94100.22;5009526;28;20550;-63
2022/01/09 05:59:44;;;;;;;36.60;24.30;;;;;;;6.45;63.97;94107.84;5008474;28;20190;-62
2022/01/09 06:02:11;;;;;;;30.27;18.95;;;;;;;5.73;65.20;94106.63;5008622;28;20213;-62
2022/01/09 06:04:38;;;;;;;26.35;18.48;;;;;;;5.96;66.39;94096.75;5008538;28;20214;-61
2022/01/09 06:07:05;;;;;;;28.30;18.52;;;;;;;6.24;65.08;94103.47;5008496;28;20221;-62
2022/01/09 06:09:32;;;;;;;25.38;17.30;;;;;;;6.21;65.93;94092.78;5008709;28;20197;-62
2022/01/09 06:11:59;;;;;;;27.75;16.85;;;;;;;6.56;64.36;94078.25;5008993;28;20205;-62
2022/01/09 06:14:26;;;;;;;24.15;15.85;;;;;;;6.72;63.81;94092.94;5008044;28;20311;-61
2022/01/09 06:16:54;;;;;;;25.35;17.10;;;;;;;6.31;65.32;94096.28;5009604;28;20260;-62
2022/01/09 06:19:21;;;;;;;27.23;17.33;;;;;;;5.92;66.20;94087.09;5008207;28;20202;-62
2022/01/09 06:21:47;;;;;;;27.65;16.85;;;;;;;6.05;66.01;94071.09;5009045;28;20202;-62
2022/01/09 06:24:14;;;;;;;27.63;17.38;;;;;;;5.68;66.87;94101.34;5008427;28;20201;-61
2022/01/09 06:26:41;;;;;;;20.92;14.05;;;;;;;5.10;69.09;94100.19;5009123;28;20260;-62
2022/01/09 06:29:08;;;;;;;26.17;15.23;;;;;;;5.75;67.54;94091.56;5009070;28;20668;-62
2022/01/09 06:31:35;;;;;;;25.67;15.68;;;;;;;6.42;65.94;94092.72;5008766;28;20206;-63
2022/01/09 06:34:01;;;;;;;29.63;17.08;;;;;;;6.71;64.44;94090.59;4999503;28;20329;-62
2022/01/09 06:36:28;;;;;;;24.77;15.07;;;;;;;7.06;63.88;94083.00;4988987;28;20202;-62
2022/01/09 06:38:55;;;;;;;21.60;13.45;;;;;;;7.01;63.63;94080.34;5004461;28;20678;-61
2022/01/09 06:41:22;;;;;;;23.38;15.15;;;;;;;6.66;64.27;94086.13;4992392;28;20198;-62
2022/01/09 06:43:49;;;;;;;20.65;13.68;;;;;;;6.67;64.19;94084.31;4992460;28;20210;-62
2022/01/09 06:46:16;;;;;;;22.83;13.70;;;;;;;7.08;63.25;94081.69;4992929;28;20213;-62
2022/01/09 06:48:43;;;;;;;21.30;13.20;;;;;;;7.07;63.19;94077.53;4992327;28;20191;-62
2022/01/09 06:51:10;;;;;;;20.45;13.23;;;;;;;7.21;62.09;94084.88;4992104;28;20210;-63
2022/01/09 06:53:37;;;;;;;20.80;13.48;;;;;;;7.24;62.24;94079.16;4991985;28;20233;-62
2022/01/09 06:56:05;;;;;;;19.95;13.52;;;;;;;7.15;61.89;94087.44;4992545;28;20273;-61
2022/01/09 06:58:32;;;;;;;21.05;12.57;;;;;;;7.26;62.29;94082.28;4991761;28;20726;-61
2022/01/09 07:00:59;;;;;;;19.10;12.15;;;;;;;7.32;61.64;94086.50;5019852;28;20209;-63
2022/01/09 07:03:26;;;;;;;20.80;13.02;;;;;;;7.15;62.26;94077.03;5030481;28;20189;-61
2022/01/09 07:05:53;;;;;;;22.73;14.10;;;;;;;7.03;62.56;94073.84;5031289;28;20231;-61
2022/01/09 07:08:20;;;;;;;19.70;12.90;;;;;;;7.29;62.11;94076.56;5031090;28;20684;-61
2022/01/09 07:10:47;;;;;;;20.48;13.27;;;;;;;7.59;61.52;94081.91;5031316;28;20217;-62
2022/01/09 07:13:17;;;;;;;23.15;12.55;;;;;;;7.72;60.80;94081.41;5030770;28;20750;-61
2022/01/09 07:15:44;;;;;;;20.48;12.88;;;;;;;7.81;60.29;94083.25;5031266;28;20201;-60
2022/01/09 07:18:11;;;;;;;19.92;13.27;;;;;;;8.16;59.77;94082.53;5030416;28;20195;-63
2022/01/09 07:20:39;;;;;;;21.45;14.10;;;;;;;7.64;60.18;94084.53;5031242;28;20871;-62
2022/01/09 07:23:06;;;;;;;24.67;14.65;;;;;;;7.64;60.58;94090.53;5030525;28;20276;-62
2022/01/09 07:25:33;;;;;;;25.85;15.18;;;;;;;7.59;61.91;94102.75;5031012;28;20196;-62
2022/01/09 07:28:01;;;;;;;29.07;17.03;;;;;;;7.49;61.67;94100.09;5030559;28;20201;-63
2022/01/09 07:30:29;;;;;;;26.92;16.67;;;;;;;7.65;61.77;94101.72;5031041;28;20990;-62
2022/01/09 07:32:56;;;;;;;25.42;15.77;;;;;;;7.67;61.14;94099.63;5015931;28;20686;-62
2022/01/09 07:35:24;;;;;;;24.17;15.85;;;;;;;8.05;60.65;94070.50;5027623;28;20201;-66
2022/01/09 07:37:51;;;;;;;26.27;16.87;;;;;;;8.87;59.22;94097.16;5001482;28;20677;-65
2022/01/09 07:40:20;;;;;;;23.73;14.17;;;;;;;8.38;60.53;94098.75;5011205;28;20441;-64
2022/01/09 07:42:47;;;;;;;23.00;14.43;;;;;;;8.49;60.34;94091.69;5011695;28;20496;-63
2022/01/09 07:45:16;;;;;;;21.27;13.48;;;;;;;8.69;59.79;94086.47;5030605;28;20431;-65
2022/01/09 07:47:43;;;;;;;20.57;13.20;;;;;;;8.89;60.32;94091.66;5030540;28;20515;-66
2022/01/09 07:50:10;;;;;;;19.57;13.37;;;;;;;9.14;58.63;94095.00;5030689;28;20439;-61
2022/01/09 07:52:39;;;;;;;38.90;23.77;;;;;;;9.11;59.28;94092.94;5029864;28;21018;-62
2022/01/09 07:55:07;;;;;;;20.40;13.07;;;;;;;9.60;58.24;94087.78;5030431;28;20970;-61
2022/01/09 07:57:35;;;;;;;18.57;12.67;;;;;;;9.83;57.85;94079.34;5030323;28;20224;-62
2022/01/09 08:00:05;;;;;;;15.13;10.30;;;;;;;9.65;57.50;94079.16;5030755;28;20844;-61
2022/01/09 08:02:41;;;;;;;14.73;10.17;;;;;;;10.02;57.70;94069.00;5030009;28;20489;-63
2022/01/09 08:05:10;;;;;;;154.60;91.53;;;;;;;9.46;58.51;94070.34;5029963;28;20505;-61
2022/01/09 08:07:38;;;;;;;44.27;31.20;;;;;;;9.70;58.27;94029.44;5029809;28;20497;-64
2022/01/09 08:10:06;;;;;;;19.40;13.07;;;;;;;10.34;56.27;94056.25;5030473;28;20452;-61
2022/01/09 08:12:36;;;;;;;19.63;10.53;;;;;;;10.34;57.56;94061.50;5029325;28;20428;-62
2022/01/09 08:15:05;;;;;;;16.07;11.10;;;;;;;10.50;57.50;94055.06;5028694;28;20476;-61
2022/01/09 08:17:32;;;;;;;18.63;11.10;;;;;;;10.88;57.09;94048.97;5030426;28;20456;-62
2022/01/09 08:19:59;;;;;;;15.73;11.10;;;;;;;11.20;55.23;94036.03;5029901;28;20443;-61
2022/01/09 08:22:29;;;;;;;19.47;11.93;;;;;;;11.44;55.17;94032.63;5029640;28;21287;-64
2022/01/09 08:24:56;;;;;;;15.97;10.17;;;;;;;11.29;54.31;94032.81;5029575;28;20450;-62
2022/01/09 08:27:24;;;;;;;16.37;10.07;;;;;;;11.32;54.23;94024.38;5029311;28;20450;-62
2022/01/09 08:29:51;;;;;;;22.03;12.03;;;;;;;11.38;55.61;94018.00;5029702;28;20439;-66
2022/01/09 08:32:17;;;;;;;60.37;40.80;;;;;;;11.51;55.32;94023.34;5011129;28;20522;-60
2022/01/09 08:34:45;;;;;;;82.67;58.93;;;;;;;11.59;55.70;94014.06;5028895;28;20484;-60
2022/01/09 08:37:12;;;;;;;29.33;20.20;;;;;;;11.76;55.16;94019.63;5026405;28;20455;-61
2022/01/09 08:39:41;;;;;;;15.30;9.93;;;;;;;12.02;53.28;94018.97;5029543;28;20934;-61
2022/01/09 08:42:08;;;;;;;14.10;9.97;;;;;;;11.90;52.96;94021.28;5027768;28;20781;-60
2022/01/09 08:44:35;;;;;;;14.23;9.13;;;;;;;12.34;51.15;94015.63;5028809;28;20455;-62
2022/01/09 08:47:03;;;;;;;15.13;10.07;;;;;;;12.42;51.46;94017.59;5028853;28;20476;-62
2022/01/09 08:49:30;;;;;;;15.90;10.90;;;;;;;11.21;52.85;94024.50;5028349;28;20893;-61
2022/01/09 08:51:57;;;;;;;16.13;11.20;;;;;;;10.96;53.95;94019.53;5028589;28;20466;-61
2022/01/09 08:54:26;;;;;;;20.93;12.83;;;;;;;11.16;53.39;94016.69;5027900;28;20487;-60
2022/01/09 08:56:52;;;;;;;18.43;12.00;;;;;;;10.79;53.86;94000.84;5023854;28;20440;-62
2022/01/09 08:59:19;;;;;;;19.73;13.47;;;;;;;10.74;54.47;94013.22;5017132;28;20535;-61
2022/01/09 09:01:47;;;;;;;44.50;31.43;;;;;;;10.86;54.69;94011.75;5012977;28;20443;-62
2022/01/09 09:04:15;;;;;;;21.80;13.40;;;;;;;11.05;54.10;94012.63;5012859;28;20448;-60
2022/01/09 09:06:42;;;;;;;16.97;10.70;;;;;;;10.65;54.08;94009.63;5008095;28;20816;-63
2022/01/09 09:09:09;;;;;;;18.70;11.57;;;;;;;10.40;55.23;93994.91;5020571;28;20486;-61
2022/01/09 09:11:37;;;;;;;15.33;9.70;;;;;;;10.40;54.53;93978.44;5028344;28;21036;-65
2022/01/09 09:14:04;;;;;;;13.50;9.07;;;;;;;10.79;54.65;93979.88;5027385;28;20491;-61
2022/01/09 09:16:32;;;;;;;12.27;8.77;;;;;;;10.81;53.71;93984.84;5015637;28;20484;-63
2022/01/09 09:18:58;;;;;;;13.27;8.57;;;;;;;10.39;55.49;93982.88;5009597;28;20471;-62
2022/01/09 09:21:25;;;;;;;11.67;7.80;;;;;;;10.14;55.07;93980.50;5023916;28;20448;-60
2022/01/09 09:23:52;;;;;;;13.57;7.50;;;;;;;10.36;54.61;93970.34;5024605;28;20861;-60
2022/01/09 09:26:21;;;;;;;11.60;8.10;;;;;;;11.01;53.58;93966.25;5028369;28;20474;-59
2022/01/09 09:28:49;;;;;;;12.03;6.90;;;;;;;11.03;52.83;93964.94;5028178;28;20471;-60
2022/01/09 09:31:16;;;;;;;10.17;7.13;;;;;;;11.58;52.35;93954.78;5028757;28;20443;-60
2022/01/09 09:33:43;;;;;;;9.93;6.47;;;;;;;11.82;51.26;93950.28;5028216;28;20514;-60
2022/01/09 09:36:10;;;;;;;9.93;6.13;;;;;;;11.44;51.20;93938.19;5028927;28;20443;-59
2022/01/09 09:38:38;;;;;;;10.63;6.80;;;;;;;12.02;50.59;93939.47;5027788;28;20510;-59
2022/01/09 09:41:05;;;;;;;10.77;6.97;;;;;;;11.90;51.63;93928.59;5028454;28;20470;-62
2022/01/09 09:43:31;;;;;;;10.37;6.60;;;;;;;11.54;52.43;93928.34;5027590;28;20436;-61
2022/01/09 09:45:58;;;;;;;59.73;49.40;;;;;;;11.78;52.14;93928.28;5028229;28;20980;-60
2022/01/09 09:48:25;;;;;;;22.97;16.60;;;;;;;11.66;50.96;93920.84;5026293;28;21059;-60
2022/01/09 09:50:52;;;;;;;16.43;11.13;;;;;;;11.19;51.73;93921.72;5027946;28;20454;-59
2022/01/09 09:53:19;;;;;;;8.57;5.63;;;;;;;11.81;50.89;93909.31;5027844;28;20483;-59
2022/01/09 09:55:48;;;;;;;9.50;5.60;;;;;;;11.72;51.56;93905.78;5018559;28;20448;-64
2022/01/09 09:58:15;;;;;;;7.93;5.50;;;;;;;11.77;51.29;93916.25;5002817;28;20464;-61
2022/01/09 10:00:50;;;;;;;6.97;5.17;;;;;;;12.09;50.21;93908.38;5010832;28;20488;-61
2022/01/09 10:03:29;;;;;;;8.90;5.77;;;;;;;12.03;50.73;93909.50;5025542;28;20450;-60
2022/01/09 10:05:57;;;;;;;9.77;5.70;;;;;;;11.34;50.89;93901.59;5027732;28;20509;-60
2022/01/09 10:08:38;;;;;;;14.23;6.30;;;;;;;11.84;50.95;93900.91;5014212;28;20449;-60
2022/01/09 10:11:16;;;;;;;10.20;6.43;;;;;;;11.99;50.86;93913.75;4997009;28;20440;-60
2022/01/09 10:13:44;;;;;;;10.77;6.83;;;;;;;11.70;51.00;93868.56;5027766;28;20491;-61
2022/01/09 10:16:13;;;;;;;9.53;6.67;;;;;;;12.05;50.55;93889.00;5031874;28;20969;-60
2022/01/09 10:18:45;;;;;;;13.90;7.23;;;;;;;12.79;49.75;93896.56;5031213;28;20804;-61
2022/01/09 10:21:18;;;;;;;13.07;6.80;;;;;;;12.85;48.86;93892.78;5000555;28;20444;-61
2022/01/09 10:24:03;;;;;;;11.90;6.90;;;;;;;12.37;48.79;93891.56;5030849;28;20450;-60
2022/01/09 10:26:39;;;;;;;11.17;7.40;;;;;;;12.13;49.75;93883.84;5031271;28;20466;-62
2022/01/09 10:29:08;;;;;;;103.13;71.37;;;;;;;11.83;51.18;93894.06;5027191;28;20458;-59
2022/01/09 10:31:47;;;;;;;19.10;11.77;;;;;;;11.50;52.16;93884.59;5017801;28;20467;-60
2022/01/09 10:34:17;;;;;;;10.70;6.80;;;;;;;11.46;52.64;93867.88;5018376;28;20563;-62
2022/01/09 10:36:49;;;;;;;11.53;7.60;;;;;;;11.00;52.99;93867.72;5013289;28;20535;-59
2022/01/09 10:39:28;;;;;;;11.73;7.60;;;;;;;11.22;52.37;93879.22;5010393;28;20449;-60
2022/01/09 10:42:03;;;;;;;10.47;7.57;;;;;;;11.75;51.38;93876.38;5015589;28;21023;-61
2022/01/09 10:44:34;;;;;;;9.30;6.90;;;;;;;11.48;51.71;93871.00;5012331;28;20456;-57
2022/01/09 10:47:06;;;;;;;9.33;6.63;;;;;;;11.29;51.31;93867.59;5009778;28;20451;-54
2022/01/09 10:49:42;;;;;;;10.23;6.97;;;;;;;11.28;51.68;93866.06;5013502;28;20452;-54
2022/01/09 10:52:13;;;;;;;11.43;6.70;;;;;;;11.28;52.22;93860.81;5016972;28;20441;-70
2022/01/09 10:54:42;;;;;;;8.87;6.47;;;;;;;11.22;51.98;93855.59;5018329;28;20484;-60
2022/01/09 10:57:23;;;;;;;10.33;6.60;;;;;;;11.45;51.73;93861.06;5009101;28;20450;-63
2022/01/09 10:59:51;;;;;;;9.17;6.80;;;;;;;11.42;51.61;93851.16;5009245;28;20445;-61
2022/01/09 11:02:20;;;;;;;9.43;6.63;;;;;;;11.06;52.07;93859.50;5012736;28;20453;-62
2022/01/09 11:04:48;;;;;;;10.00;6.47;;;;;;;11.27;51.90;93844.28;5019455;28;20443;-60
2022/01/09 11:07:16;;;;;;;9.50;6.87;;;;;;;11.55;51.16;93838.06;5015020;28;20475;-60
2022/01/09 11:09:47;;;;;;;9.80;6.87;;;;;;;11.17;51.98;93841.78;5030350;28;20448;-64
2022/01/09 11:12:17;;;;;;;10.10;6.20;;;;;;;10.79;52.33;93838.38;5031073;28;20475;-61
2022/01/09 11:14:44;;;;;;;21.20;15.87;;;;;;;11.48;52.73;93844.78;5030169;28;21041;-61
2022/01/09 11:17:11;;;;;;;30.87;21.17;;;;;;;11.73;51.36;93839.16;5030040;28;20551;-59
2022/01/09 11:19:43;;;;;;;21.47;13.07;;;;;;;11.69;51.44;93843.41;5030531;28;20472;-65
2022/01/09 11:22:10;;;;;;;11.00;6.53;;;;;;;11.54;51.56;93827.88;5030129;28;21136;-59
2022/01/09 11:25:15;;;;;;;10.80;7.10;;;;;;;11.62;51.29;93829.84;5029804;28;20566;-58
2022/01/09 11:28:02;;;;;;;11.30;6.83;;;;;;;10.42;53.40;93838.31;5029748;28;20825;-60
2022/01/09 11:30:33;;;;;;;10.80;6.50;;;;;;;10.90;52.73;93834.56;5030454;28;20971;-60
2022/01/09 11:33:04;;;;;;;12.43;7.73;;;;;;;10.58;54.86;93826.63;5029480;28;20456;-59
2022/01/09 11:35:43;;;;;;;11.07;7.07;;;;;;;10.94;53.31;93822.47;5029720;28;20491;-62